Terminal Aerodrome Forecast
Issued by NWS

Home | Current Version | Previous Version | Text Only | Print | Product List | Glossary On
Versions: 1 2 3 4 5 6 7 8 9 10 11 12 13 14 15 16 17
000
FTUS43 KTOP 301700
TAFFOE
TAF
KFOE 301720Z 3018/3118 VRB04KT P6SM SKC
     FM310600 17005KT P6SM SCT250
     FM311400 19014KT P6SM SCT100 SCT250=

USA.gov is the U.S. government's official web portal to all federal, state and local government web resources and services.